createdAt,value
2014-07-06T00:00:44.375Z,22.29
2014-07-06T00:01:49.065Z,22.59
2014-07-06T00:02:54.051Z,22.61
2014-07-06T00:03:58.725Z,22.32
2014-07-06T00:05:03.414Z,22.5
2014-07-06T00:06:08.105Z,22.73
2014-07-06T00:07:12.810Z,22.74
2014-07-06T00:08:17.795Z,22.47
2014-07-06T00:09:22.486Z,22.34
2014-07-06T00:10:27.175Z,22.28
2014-07-06T00:11:31.848Z,22.32
2014-07-06T00:12:36.836Z,22.28
2014-07-06T00:13:41.525Z,22.37
2014-07-06T00:14:45.527Z,22.36
2014-07-06T00:15:50.513Z,22.44
2014-07-06T00:16:55.203Z,22.53
2014-07-06T00:17:59.892Z,22.45
2014-07-06T00:19:04.566Z,22.58
2014-07-06T00:20:09.256Z,22.38
2014-07-06T00:21:13.945Z,22.64
2014-07-06T00:22:18.650Z,22.54
2014-07-06T00:23:23.341Z,22.5
2014-07-06T00:24:28.029Z,22.7
2014-07-06T00:25:33.017Z,22.42
2014-07-06T00:26:37.706Z,22.26
2014-07-06T00:27:42.693Z,22.18
2014-07-06T00:28:47.367Z,22.2
2014-07-06T00:29:52.056Z,22.18
2014-07-06T00:30:57.042Z,22.17
2014-07-06T00:32:01.732Z,22.18
2014-07-06T00:33:06.718Z,22.24
2014-07-06T00:34:11.408Z,22.24
2014-07-06T00:35:16.082Z,22.24
2014-07-06T00:36:20.771Z,22.34
2014-07-06T00:37:25.461Z,22.3
2014-07-06T00:38:30.150Z,22.32
2014-07-06T00:39:34.841Z,22.34
2014-07-06T00:40:39.530Z,22.25
2014-07-06T00:41:44.235Z,22.24
2014-07-06T00:42:48.924Z,22.22
2014-07-06T00:43:53.614Z,22.16
2014-07-06T00:44:58.287Z,22.14
2014-07-06T00:46:02.978Z,22.01
2014-07-06T00:47:07.965Z,22.06
2014-07-06T00:48:12.654Z,22.11
2014-07-06T00:49:17.344Z,22.2
2014-07-06T00:50:22.034Z,22.09
2014-07-06T00:51:26.706Z,22.12
2014-07-06T00:52:31.397Z,22.24
2014-07-06T00:53:36.085Z,22.39
2014-07-06T00:54:40.776Z,22.51
2014-07-06T00:55:45.761Z,22.42
2014-07-06T00:56:50.435Z,22.08
2014-07-06T00:57:55.126Z,22.36
2014-07-06T00:58:59.814Z,22.12
2014-07-06T01:00:04.505Z,22.22
2014-07-06T01:01:09.194Z,22.41
2014-07-06T01:02:13.868Z,22.47
2014-07-06T01:03:18.558Z,22.36
2014-07-06T01:04:23.248Z,22.38
2014-07-06T01:05:27.937Z,21.97
2014-07-06T01:06:32.627Z,22.11
2014-07-06T01:07:37.301Z,22.02
2014-07-06T01:08:41.989Z,21.92
2014-07-06T01:09:46.680Z,21.94
2014-07-06T01:10:51.368Z,22.05
2014-07-06T01:11:56.059Z,22.2
2014-07-06T01:13:00.748Z,22.06
2014-07-06T01:14:05.734Z,22.07
2014-07-06T01:15:10.409Z,22.03
2014-07-06T01:16:15.395Z,22.08
2014-07-06T01:17:20.085Z,21.92
2014-07-06T01:18:24.775Z,21.94
2014-07-06T01:19:29.760Z,21.92
2014-07-06T01:20:34.450Z,21.98
2014-07-06T01:21:39.125Z,22.08
2014-07-06T01:22:43.813Z,22.14
2014-07-06T01:23:48.504Z,22.14
2014-07-06T01:24:53.192Z,22.08
2014-07-06T01:25:57.883Z,22.04
2014-07-06T01:27:02.571Z,22.07
2014-07-06T01:28:07.559Z,22.14
2014-07-06T01:29:12.545Z,22.08
2014-07-06T01:30:17.219Z,22.22
2014-07-06T01:31:21.908Z,22.22
2014-07-06T01:32:26.598Z,22.24
2014-07-06T01:33:31.287Z,22.37
2014-07-06T01:34:35.978Z,21.9
2014-07-06T01:35:40.666Z,21.75
2014-07-06T01:36:45.357Z,21.8
2014-07-06T01:37:50.045Z,21.69
2014-07-06T01:38:54.736Z,21.69
2014-07-06T01:39:59.424Z,21.59
2014-07-06T01:41:04.145Z,21.56
2014-07-06T01:42:08.836Z,21.5
2014-07-06T01:43:13.524Z,21.49
2014-07-06T01:44:18.215Z,21.54
2014-07-06T01:45:22.904Z,21.21
2014-07-06T01:46:27.578Z,21.36
2014-07-06T01:47:32.268Z,21.72
2014-07-06T01:48:36.958Z,21.54
2014-07-06T01:49:41.647Z,21.47
2014-07-06T01:50:46.634Z,21.11
2014-07-06T01:51:51.322Z,21.46
2014-07-06T01:52:56.309Z,21.77
2014-07-06T01:54:00.998Z,21.93
2014-07-06T01:55:05.688Z,21.85
2014-07-06T01:56:10.377Z,21.64
2014-07-06T01:57:15.068Z,21.81
2014-07-06T01:58:19.757Z,21.59
2014-07-06T01:59:24.446Z,21.37
2014-07-06T02:00:29.136Z,21.31
2014-07-06T02:01:34.123Z,21.37
2014-07-06T02:02:38.797Z,21.37
2014-07-06T02:03:43.487Z,21.64
2014-07-06T02:04:48.176Z,21.46
2014-07-06T02:05:52.866Z,21.4
2014-07-06T02:06:57.555Z,21.3
2014-07-06T02:08:02.245Z,21.29
2014-07-06T02:09:06.934Z,21.22
2014-07-06T02:10:11.624Z,21.1
2014-07-06T02:11:16.314Z,21.04
2014-07-06T02:12:21.003Z,21.02
2014-07-06T02:13:25.693Z,21.03
2014-07-06T02:14:30.695Z,21
2014-07-06T02:15:35.368Z,21
2014-07-06T02:16:40.058Z,21.19
2014-07-06T02:17:44.747Z,21.28
2014-07-06T02:18:49.437Z,21.42
2014-07-06T02:19:54.126Z,21.22
2014-07-06T02:20:58.817Z,21.16
2014-07-06T02:22:03.506Z,20.96
2014-07-06T02:23:08.195Z,20.94
2014-07-06T02:24:12.885Z,20.84
2014-07-06T02:25:17.574Z,20.8
2014-07-06T02:26:22.264Z,20.78
2014-07-06T02:27:26.953Z,20.8
2014-07-06T02:28:31.643Z,20.72
2014-07-06T02:29:36.332Z,20.84
2014-07-06T02:30:41.007Z,21.18
2014-07-06T02:31:45.696Z,21.35
2014-07-06T02:32:50.386Z,21.52
2014-07-06T02:33:55.388Z,21.61
2014-07-06T02:35:00.077Z,21.44
2014-07-06T02:36:04.751Z,21.41
2014-07-06T02:37:09.753Z,21.38
2014-07-06T02:38:14.444Z,21.51
2014-07-06T02:39:19.132Z,21.56
2014-07-06T02:40:23.807Z,21.46
2014-07-06T02:41:28.497Z,21.27
2014-07-06T02:42:33.202Z,20.98
2014-07-06T02:43:37.891Z,20.96
2014-07-06T02:44:42.878Z,21.06
2014-07-06T02:45:47.864Z,21.12
2014-07-06T02:46:52.553Z,21.19
2014-07-06T02:47:57.243Z,20.9
2014-07-06T02:49:01.932Z,20.8
2014-07-06T02:50:06.622Z,20.86
2014-07-06T02:51:11.311Z,20.75
2014-07-06T02:52:16.002Z,20.76
2014-07-06T02:53:20.690Z,20.82
2014-07-06T02:54:25.381Z,21.05
2014-07-06T02:55:30.069Z,21.14
2014-07-06T02:56:35.057Z,20.6
2014-07-06T02:57:39.745Z,20.44
2014-07-06T02:58:44.436Z,20.76
2014-07-06T02:59:49.421Z,20.74
2014-07-06T03:00:54.127Z,20.74
2014-07-06T03:01:58.817Z,20.63
2014-07-06T03:03:03.491Z,20.7
2014-07-06T03:04:08.180Z,20.6
2014-07-06T03:05:12.870Z,20.57
2014-07-06T03:06:17.559Z,20.68
2014-07-06T03:07:22.546Z,20.66
2014-07-06T03:08:27.236Z,20.54
2014-07-06T03:09:31.925Z,20.56
2014-07-06T03:10:36.614Z,20.64
2014-07-06T03:11:41.305Z,21.02
2014-07-06T03:12:46.290Z,20.82
2014-07-06T03:13:50.980Z,20.76
2014-07-06T03:14:55.670Z,20.79
2014-07-06T03:16:00.359Z,20.65
2014-07-06T03:17:05.033Z,20.73
2014-07-06T03:18:09.723Z,20.64
2014-07-06T03:19:14.725Z,20.74
2014-07-06T03:20:19.414Z,20.69
2014-07-06T03:21:24.104Z,20.7
2014-07-06T03:22:28.793Z,20.77
2014-07-06T03:23:33.483Z,20.82
2014-07-06T03:24:38.173Z,20.8
2014-07-06T03:25:42.862Z,20.76
2014-07-06T03:26:47.552Z,20.56
2014-07-06T03:27:52.225Z,20.65
2014-07-06T03:28:56.931Z,20.75
2014-07-06T03:30:01.604Z,20.58
2014-07-06T03:31:06.310Z,20.61
2014-07-06T03:32:10.984Z,20.62
2014-07-06T03:33:15.674Z,20.5
2014-07-06T03:34:20.363Z,20.39
2014-07-06T03:35:25.350Z,20.44
2014-07-06T03:36:30.336Z,20.47
2014-07-06T03:37:35.025Z,20.45
2014-07-06T03:38:39.699Z,20.44
2014-07-06T03:39:44.389Z,20.52
2014-07-06T03:40:49.063Z,20.73
2014-07-06T03:41:53.752Z,20.98
2014-07-06T03:42:58.739Z,20.9
2014-07-06T03:44:03.412Z,20.9
2014-07-06T03:45:08.102Z,20.8
2014-07-06T03:46:13.088Z,20.56
2014-07-06T03:47:17.762Z,20.62
2014-07-06T03:48:22.749Z,20.61
2014-07-06T03:49:27.438Z,20.52
2014-07-06T03:50:32.425Z,20.62
2014-07-06T03:51:37.396Z,20.9
2014-07-06T03:52:42.086Z,20.99
2014-07-06T03:53:46.774Z,21
2014-07-06T03:54:51.448Z,20.76
2014-07-06T03:55:56.138Z,20.58
2014-07-06T03:57:00.811Z,20.52
2014-07-06T03:58:05.501Z,20.54
2014-07-06T03:59:10.190Z,20.83
2014-07-06T04:00:15.177Z,20.84
2014-07-06T04:01:19.866Z,21
2014-07-06T04:02:24.540Z,20.95
2014-07-06T04:03:29.231Z,21.08
2014-07-06T04:04:33.919Z,21.04
2014-07-06T04:05:38.594Z,21.18
2014-07-06T04:06:43.284Z,21.24
2014-07-06T04:07:47.973Z,21.27
2014-07-06T04:08:52.663Z,21.46
2014-07-06T04:09:57.650Z,21.09
2014-07-06T04:11:02.325Z,21.14
2014-07-06T04:12:07.310Z,21.1
2014-07-06T04:13:12.001Z,21.16
2014-07-06T04:14:16.675Z,21.22
2014-07-06T04:15:21.957Z,21.29
2014-07-06T04:16:26.647Z,21.24
2014-07-06T04:17:31.321Z,21.48
2014-07-06T04:18:36.308Z,21.3
2014-07-06T04:19:40.997Z,21.29
2014-07-06T04:20:45.672Z,21
2014-07-06T04:21:50.360Z,20.75
2014-07-06T04:22:55.348Z,20.73
2014-07-06T04:24:00.036Z,20.67
2014-07-06T04:25:04.727Z,21.01
2014-07-06T04:26:09.416Z,21.24
2014-07-06T04:27:14.105Z,21.08
2014-07-06T04:28:19.077Z,20.98
2014-07-06T04:29:24.063Z,20.8
2014-07-06T04:30:28.752Z,20.88
2014-07-06T04:31:33.739Z,20.79
2014-07-06T04:32:38.428Z,20.73
2014-07-06T04:33:43.118Z,20.72
2014-07-06T04:34:47.792Z,20.77
2014-07-06T04:35:52.779Z,20.72
2014-07-06T04:36:57.483Z,20.82
2014-07-06T04:38:02.470Z,21.06
2014-07-06T04:39:07.160Z,21.19
2014-07-06T04:40:11.850Z,21.16
2014-07-06T04:41:16.835Z,21.37
2014-07-06T04:42:21.510Z,21.31
2014-07-06T04:43:26.198Z,21.27
2014-07-06T04:44:31.186Z,21.4
2014-07-06T04:45:36.156Z,21.48
2014-07-06T04:46:41.143Z,21.4
2014-07-06T04:47:45.832Z,21.4
2014-07-06T04:48:50.522Z,21.38
2014-07-06T04:49:55.211Z,21.67
2014-07-06T04:50:59.885Z,21.56
2014-07-06T04:52:04.575Z,21.78
2014-07-06T04:53:09.562Z,22.04
2014-07-06T04:54:14.251Z,22.22
2014-07-06T04:55:18.940Z,22.35
2014-07-06T04:56:23.912Z,22.1
2014-07-06T04:57:28.600Z,22.12
2014-07-06T04:58:33.588Z,22.23
2014-07-06T04:59:38.574Z,22.1
2014-07-06T05:00:43.264Z,22.12
2014-07-06T05:01:47.953Z,22.14
2014-07-06T05:02:52.643Z,22.22
2014-07-06T05:03:57.316Z,22.38
2014-07-06T05:05:02.053Z,22.73
2014-07-06T05:06:06.742Z,22.92
2014-07-06T05:07:11.416Z,23.02
2014-07-06T05:08:16.107Z,23.13
2014-07-06T05:09:20.796Z,23.14
2014-07-06T05:10:25.469Z,23.17
2014-07-06T05:11:30.160Z,23.12
2014-07-06T05:12:34.848Z,23.04
2014-07-06T05:13:39.538Z,23.32
2014-07-06T05:14:44.228Z,23.52
2014-07-06T05:15:49.214Z,23.61
2014-07-06T05:16:53.888Z,23.68
2014-07-06T05:17:58.592Z,23.88
2014-07-06T05:19:03.282Z,23.76
2014-07-06T05:20:07.972Z,23.65
2014-07-06T05:21:12.959Z,23.68
2014-07-06T05:22:17.944Z,23.76
2014-07-06T05:23:22.634Z,23.71
2014-07-06T05:24:27.324Z,23.31
2014-07-06T05:25:31.998Z,23.73
2014-07-06T05:26:36.702Z,23.8
2014-07-06T05:27:41.376Z,23.72
2014-07-06T05:28:46.066Z,24.05
2014-07-06T05:29:51.053Z,24.08
2014-07-06T05:30:56.038Z,23.98
2014-07-06T05:32:00.729Z,24.16
2014-07-06T05:33:05.417Z,23.62
2014-07-06T05:34:10.388Z,23.88
2014-07-06T05:35:15.079Z,24.26
2014-07-06T05:36:19.768Z,24.45
2014-07-06T05:37:24.458Z,24.48
2014-07-06T05:38:29.444Z,24.56
2014-07-06T05:39:34.133Z,24.46
2014-07-06T05:40:38.807Z,24.49
2014-07-06T05:41:43.794Z,24.61
2014-07-06T05:42:48.483Z,24.49
2014-07-06T05:43:53.175Z,24.67
2014-07-06T05:44:58.208Z,24.53
2014-07-06T05:46:02.897Z,24.73
2014-07-06T05:47:07.587Z,24.42
2014-07-06T05:48:12.573Z,24.74
2014-07-06T05:49:17.263Z,24.84
2014-07-06T05:50:21.952Z,25
2014-07-06T05:51:26.626Z,24.72
2014-07-06T05:52:31.317Z,24.72
2014-07-06T05:53:36.005Z,24.89
2014-07-06T05:54:40.711Z,25.17
2014-07-06T05:55:45.400Z,25.05
2014-07-06T05:56:50.089Z,25.5
2014-07-06T05:57:54.763Z,25.56
2014-07-06T05:58:59.469Z,25.45
2014-07-06T06:00:04.455Z,25.1
2014-07-06T06:01:09.145Z,24.69
2014-07-06T06:02:13.835Z,24.73
2014-07-06T06:03:18.524Z,24.8
2014-07-06T06:04:23.214Z,25.23
2014-07-06T06:05:27.903Z,25.18
2014-07-06T06:06:32.592Z,25.18
2014-07-06T06:07:37.281Z,24.82
2014-07-06T06:08:41.972Z,24.74
2014-07-06T06:09:46.942Z,25.45
2014-07-06T06:10:51.944Z,26.86
2014-07-06T06:11:56.618Z,27.97
2014-07-06T06:13:01.308Z,30.16
2014-07-06T06:14:05.997Z,31.42
2014-07-06T06:15:11.280Z,32.28
2014-07-06T06:16:15.970Z,32.62
2014-07-06T06:17:20.660Z,33.19
2014-07-06T06:18:25.349Z,34.07
2014-07-06T06:19:30.039Z,34.04
2014-07-06T06:20:34.728Z,34.09
2014-07-06T06:21:39.418Z,34.59
2014-07-06T06:22:44.107Z,34.8
2014-07-06T06:23:49.093Z,35.55
2014-07-06T06:24:54.080Z,35.37
2014-07-06T06:25:58.769Z,35.81
2014-07-06T06:27:03.474Z,35.36
2014-07-06T06:28:08.164Z,33.42
2014-07-06T06:29:12.853Z,34.91
2014-07-06T06:30:17.574Z,36.83
2014-07-06T06:31:22.562Z,37.8
2014-07-06T06:32:27.549Z,38.19
2014-07-06T06:33:32.255Z,37.32
2014-07-06T06:34:36.944Z,37.72
2014-07-06T06:35:41.650Z,37.23
2014-07-06T06:36:46.354Z,37.97
2014-07-06T06:37:51.043Z,37.56
2014-07-06T06:38:56.045Z,37.37
2014-07-06T06:40:01.033Z,36.99
2014-07-06T06:41:05.738Z,34.95
2014-07-06T06:42:10.755Z,32.8
2014-07-06T06:43:15.445Z,31.25
2014-07-06T06:44:20.134Z,30.5
2014-07-06T06:45:24.824Z,30.29
2014-07-06T06:46:29.529Z,30.02
2014-07-06T06:47:34.515Z,29.54
2014-07-06T06:48:39.205Z,28.4
2014-07-06T06:49:43.894Z,28
2014-07-06T06:50:48.584Z,28.14
2014-07-06T06:51:53.274Z,27.85
2014-07-06T06:52:57.963Z,27.16
2014-07-06T06:54:01.965Z,27.73
2014-07-06T06:55:06.655Z,27.52
2014-07-06T06:56:11.641Z,27.97
2014-07-06T06:57:16.331Z,27.8
2014-07-06T06:58:21.021Z,27.54
2014-07-06T06:59:25.710Z,27.04
2014-07-06T07:00:30.400Z,27.06
2014-07-06T07:01:35.088Z,26.96
2014-07-06T07:02:40.076Z,27.55
2014-07-06T07:03:44.764Z,27.57
2014-07-06T07:04:49.455Z,27.56
2014-07-06T07:05:54.144Z,27.97
2014-07-06T07:06:58.834Z,28.39
2014-07-06T07:08:03.820Z,27.66
2014-07-06T07:09:08.805Z,27.5
2014-07-06T07:10:12.808Z,27.85
2014-07-06T07:11:17.794Z,28.15
2014-07-06T07:12:22.483Z,28.28
2014-07-06T07:13:27.174Z,28.35
2014-07-06T07:14:31.863Z,28.75
2014-07-06T07:15:36.552Z,28.46
2014-07-06T07:16:41.242Z,28.42
2014-07-06T07:17:45.932Z,27.8
2014-07-06T07:18:50.606Z,27.68
2014-07-06T07:19:55.311Z,27.66
2014-07-06T07:20:59.999Z,28.13
2014-07-06T07:22:04.986Z,27.67
2014-07-06T07:23:09.676Z,27.86
2014-07-06T07:24:14.365Z,28.22
2014-07-06T07:25:19.056Z,27.84
2014-07-06T07:26:23.747Z,27.79
2014-07-06T07:27:28.421Z,28.04
2014-07-06T07:28:33.406Z,27.91
2014-07-06T07:29:38.095Z,28.24
2014-07-06T07:30:42.786Z,27.79
2014-07-06T07:31:47.475Z,27.92
2014-07-06T07:32:52.164Z,28.11
2014-07-06T07:33:56.870Z,28.44
2014-07-06T07:35:01.559Z,28.35
2014-07-06T07:36:06.545Z,28.54
2014-07-06T07:37:11.235Z,28.36
2014-07-06T07:38:15.925Z,29.23
2014-07-06T07:39:20.926Z,29.46
2014-07-06T07:40:25.913Z,29.56
2014-07-06T07:41:30.915Z,29.16
2014-07-06T07:42:35.604Z,28.99
2014-07-06T07:43:40.294Z,29.3
2014-07-06T07:44:45.280Z,29.77
2014-07-06T07:45:49.970Z,29.84
2014-07-06T07:46:54.660Z,29.18
2014-07-06T07:47:59.459Z,29.38
2014-07-06T07:49:04.445Z,29.14
2014-07-06T07:50:09.134Z,29.46
2014-07-06T07:51:13.824Z,29.24
2014-07-06T07:52:18.810Z,28.6
2014-07-06T07:53:23.500Z,29.02
2014-07-06T07:54:28.189Z,29.38
2014-07-06T07:55:32.879Z,29.5
2014-07-06T07:56:37.555Z,28.86
2014-07-06T07:57:42.244Z,28.84
2014-07-06T07:58:46.948Z,29.17
2014-07-06T07:59:51.639Z,28.81
2014-07-06T08:00:56.327Z,28.41
2014-07-06T08:02:01.017Z,28.61
2014-07-06T08:03:05.707Z,29.2
2014-07-06T08:04:10.397Z,29.2
2014-07-06T08:05:15.090Z,29.53
2014-07-06T08:06:19.822Z,29.74
2014-07-06T08:07:24.551Z,29.89
2014-07-06T08:08:29.285Z,29.64
2014-07-06T08:09:34.312Z,29.58
2014-07-06T08:10:39.033Z,29.07
2014-07-06T08:11:43.737Z,29.27
2014-07-06T08:12:48.738Z,29.11
2014-07-06T08:13:53.441Z,29.25
2014-07-06T08:14:58.129Z,28.8
2014-07-06T08:16:03.141Z,28.75
2014-07-06T08:17:07.835Z,29.13
2014-07-06T08:18:12.827Z,29.58
2014-07-06T08:19:17.824Z,29.81
2014-07-06T08:20:22.519Z,29.96
2014-07-06T08:21:27.209Z,29.59
2014-07-06T08:22:32.213Z,29.88
2014-07-06T08:23:36.217Z,29.83
2014-07-06T08:24:40.909Z,30.08
2014-07-06T08:25:45.599Z,29.85
2014-07-06T08:26:50.586Z,30.05
2014-07-06T08:27:55.277Z,30.07
2014-07-06T08:28:59.967Z,30.11
2014-07-06T08:30:04.954Z,30.27
2014-07-06T08:31:09.643Z,29.97
2014-07-06T08:32:14.333Z,29.98
2014-07-06T08:33:19.023Z,29.81
2014-07-06T08:34:23.713Z,30.05
2014-07-06T08:35:28.404Z,30.31
2014-07-06T08:36:33.391Z,30.06
2014-07-06T08:37:38.080Z,29.72
2014-07-06T08:38:42.770Z,29.99
2014-07-06T08:39:47.459Z,29.94
2014-07-06T08:40:52.446Z,29.67
2014-07-06T08:41:57.432Z,30.1
2014-07-06T08:43:02.418Z,30.22
2014-07-06T08:44:07.108Z,31.18
2014-07-06T08:45:11.796Z,31.27
2014-07-06T08:46:16.502Z,31.1
2014-07-06T08:47:21.488Z,30.74
2014-07-06T08:48:26.178Z,30.62
2014-07-06T08:49:30.870Z,30.54
2014-07-06T08:50:35.855Z,29.95
2014-07-06T08:51:40.857Z,30.16
2014-07-06T08:52:45.547Z,30.32
2014-07-06T08:53:50.237Z,30.61
2014-07-06T08:54:54.926Z,30.7
2014-07-06T08:55:58.928Z,30.92
2014-07-06T08:57:03.915Z,30.75
2014-07-06T08:58:08.604Z,30.56
2014-07-06T08:59:13.591Z,30.67
2014-07-06T09:00:18.281Z,30.71
2014-07-06T09:01:23.267Z,30.68
2014-07-06T09:02:27.956Z,30.25
2014-07-06T09:03:32.943Z,30.37
2014-07-06T09:04:37.929Z,30.48
2014-07-06T09:05:42.916Z,30.32
2014-07-06T09:06:47.621Z,30.44
2014-07-06T09:07:52.310Z,30.45
2014-07-06T09:08:57.000Z,30.69
2014-07-06T09:10:01.688Z,30.62
2014-07-06T09:11:06.378Z,30.57
2014-07-06T09:12:11.364Z,30.58
2014-07-06T09:13:16.350Z,30.5
2014-07-06T09:14:21.040Z,30.29
2014-07-06T09:15:25.729Z,30.5
2014-07-06T09:16:30.421Z,30.81
2014-07-06T09:17:35.110Z,30.65
2014-07-06T09:18:39.800Z,30.77
2014-07-06T09:19:44.786Z,30.81
2014-07-06T09:20:49.476Z,30.74
2014-07-06T09:21:54.181Z,30.66
2014-07-06T09:22:58.870Z,30.94
2014-07-06T09:24:03.560Z,30.94
2014-07-06T09:25:08.250Z,30.14
2014-07-06T09:26:12.251Z,29.92
2014-07-06T09:27:16.941Z,30.55
2014-07-06T09:28:21.631Z,30.94
2014-07-06T09:29:26.321Z,31
2014-07-06T09:30:31.306Z,30.8
2014-07-06T09:31:35.997Z,31.19
2014-07-06T09:32:40.983Z,31.46
2014-07-06T09:33:44.985Z,31.49
2014-07-06T09:34:49.971Z,31.49
2014-07-06T09:35:54.957Z,31.5
2014-07-06T09:36:59.646Z,31.62
2014-07-06T09:38:04.337Z,31.96
2014-07-06T09:39:09.025Z,31.74
2014-07-06T09:40:13.731Z,31.68
2014-07-06T09:41:18.420Z,31.66
2014-07-06T09:42:23.406Z,31.46
2014-07-06T09:43:28.395Z,31.62
2014-07-06T09:44:33.084Z,31.9
2014-07-06T09:45:37.773Z,31.52
2014-07-06T09:46:42.759Z,31.31
2014-07-06T09:47:47.746Z,31.38
2014-07-06T09:48:52.451Z,31.62
2014-07-06T09:49:57.140Z,31.58
2014-07-06T09:51:02.127Z,31.64
2014-07-06T09:52:06.816Z,31.77
2014-07-06T09:53:11.507Z,31.92
2014-07-06T09:54:16.492Z,31.5
2014-07-06T09:55:21.181Z,31.85
2014-07-06T09:56:25.871Z,31.76
2014-07-06T09:57:30.560Z,32.16
2014-07-06T09:58:35.251Z,32.42
2014-07-06T09:59:39.955Z,32.46
2014-07-06T10:00:44.646Z,31.69
2014-07-06T10:01:49.648Z,31.92
2014-07-06T10:02:54.337Z,32.09
2014-07-06T10:03:59.323Z,32.4
2014-07-06T10:05:04.310Z,32.22
2014-07-06T10:06:08.999Z,32.12
2014-07-06T10:07:13.689Z,32.03
2014-07-06T10:08:18.394Z,31.93
2014-07-06T10:09:23.085Z,31.82
2014-07-06T10:10:27.775Z,32.02
2014-07-06T10:11:32.463Z,32.11
2014-07-06T10:12:37.154Z,31.55
2014-07-06T10:13:41.843Z,32.04
2014-07-06T10:14:46.533Z,31.94
2014-07-06T10:15:51.534Z,32.04
2014-07-06T10:16:56.224Z,31.78
2014-07-06T10:18:00.913Z,32.31
2014-07-06T10:19:05.900Z,32.28
2014-07-06T10:20:10.604Z,32.02
2014-07-06T10:21:15.295Z,32.04
2014-07-06T10:22:19.984Z,32.39
2014-07-06T10:23:24.970Z,32.6
2014-07-06T10:24:29.675Z,32.13
2014-07-06T10:25:34.365Z,31.68
2014-07-06T10:26:39.351Z,31.88
2014-07-06T10:27:44.041Z,31.72
2014-07-06T10:28:48.731Z,31.19
2014-07-06T10:29:53.435Z,31.08
2014-07-06T10:30:58.422Z,31.42
2014-07-06T10:32:03.112Z,32.25
2014-07-06T10:33:07.801Z,31.83
2014-07-06T10:34:12.491Z,31.7
2014-07-06T10:35:17.180Z,31.59
2014-07-06T10:36:21.870Z,31.87
2014-07-06T10:37:26.561Z,31.92
2014-07-06T10:38:31.250Z,31.89
2014-07-06T10:39:35.939Z,32.51
2014-07-06T10:40:40.629Z,33.1
2014-07-06T10:41:45.318Z,32.83
2014-07-06T10:42:50.305Z,33.1
2014-07-06T10:43:54.994Z,33.54
2014-07-06T10:44:59.684Z,33.83
2014-07-06T10:46:04.373Z,33.64
2014-07-06T10:47:09.063Z,33.41
2014-07-06T10:48:13.768Z,32.87
2014-07-06T10:49:18.457Z,32.4
2014-07-06T10:50:23.147Z,32.38
2014-07-06T10:51:28.133Z,32.53
2014-07-06T10:52:32.825Z,32.93
2014-07-06T10:53:37.529Z,32.96
2014-07-06T10:54:42.219Z,32.83
2014-07-06T10:55:46.909Z,33.32
2014-07-06T10:56:51.598Z,33.56
2014-07-06T10:57:56.288Z,33.78
2014-07-06T10:59:01.273Z,33.48
2014-07-06T11:00:05.963Z,33.77
2014-07-06T11:01:10.668Z,33.65
2014-07-06T11:02:15.357Z,33.67
2014-07-06T11:03:20.641Z,32.86
2014-07-06T11:04:25.924Z,33.23
2014-07-06T11:05:30.631Z,33.36
2014-07-06T11:06:35.319Z,33.34
2014-07-06T11:07:40.010Z,33.42
2014-07-06T11:08:44.698Z,33.17
2014-07-06T11:09:49.405Z,33.23
2014-07-06T11:10:54.094Z,33.34
2014-07-06T11:11:59.079Z,33.23
2014-07-06T11:13:04.067Z,33.09
2014-07-06T11:14:09.053Z,33.01
2014-07-06T11:15:13.742Z,33.02
2014-07-06T11:16:18.447Z,33.29
2014-07-06T11:17:23.137Z,33
2014-07-06T11:18:28.124Z,33.03
2014-07-06T11:19:32.813Z,32.92
2014-07-06T11:20:37.503Z,32.86
2014-07-06T11:21:42.489Z,32.89
2014-07-06T11:22:47.179Z,32.98
2014-07-06T11:23:52.181Z,32.64
2014-07-06T11:24:56.870Z,32.77
2014-07-06T11:26:01.560Z,32.81
2014-07-06T11:27:06.264Z,32.49
2014-07-06T11:28:10.954Z,32.58
2014-07-06T11:29:15.644Z,32.36
2014-07-06T11:30:20.333Z,32.52
2014-07-06T11:31:25.336Z,32.44
2014-07-06T11:32:30.323Z,32.41
2014-07-06T11:33:34.325Z,32.65
2014-07-06T11:34:38.327Z,32.6
2014-07-06T11:35:43.016Z,32.65
2014-07-06T11:36:47.706Z,32.82
2014-07-06T11:37:52.395Z,32.98
2014-07-06T11:38:57.085Z,33.01
2014-07-06T11:40:01.790Z,32.78
2014-07-06T11:41:06.479Z,32.94
2014-07-06T11:42:10.481Z,32.83
2014-07-06T11:43:15.171Z,32.99
2014-07-06T11:44:19.859Z,32.99
2014-07-06T11:45:24.566Z,33.11
2014-07-06T11:46:29.553Z,32.96
2014-07-06T11:47:34.242Z,32.77
2014-07-06T11:48:39.228Z,32.87
2014-07-06T11:49:43.933Z,33.21
2014-07-06T11:50:48.920Z,33.45
2014-07-06T11:51:53.609Z,33.23
2014-07-06T11:52:58.596Z,33.44
2014-07-06T11:54:03.301Z,33.52
2014-07-06T11:55:08.286Z,33.45
2014-07-06T11:56:12.976Z,33.25
2014-07-06T11:57:17.666Z,33.49
2014-07-06T11:58:22.355Z,33.44
2014-07-06T11:59:27.341Z,33.56
2014-07-06T12:00:32.048Z,33.64
2014-07-06T12:01:37.035Z,33.75
2014-07-06T12:02:42.021Z,33.42
2014-07-06T12:03:46.712Z,33.03
2014-07-06T12:04:51.416Z,32.84
2014-07-06T12:05:56.105Z,32.53
2014-07-06T12:07:01.093Z,32.2
2014-07-06T12:08:06.078Z,31.84
2014-07-06T12:09:10.768Z,31.78
2014-07-06T12:10:15.754Z,32.25
2014-07-06T12:11:20.740Z,32.19
2014-07-06T12:12:25.430Z,32.2
2014-07-06T12:13:30.416Z,32.07
2014-07-06T12:14:35.121Z,32.4
2014-07-06T12:15:39.811Z,32.59
2014-07-06T12:16:44.516Z,32.15
2014-07-06T12:17:49.206Z,32.5
2014-07-06T12:18:53.895Z,32.81
2014-07-06T12:19:58.584Z,33.08
2014-07-06T12:21:03.571Z,32.99
2014-07-06T12:22:08.260Z,33.22
2014-07-06T12:23:12.950Z,33.41
2014-07-06T12:24:17.936Z,32.8
2014-07-06T12:25:22.628Z,32.71
2014-07-06T12:26:27.316Z,32.58
2014-07-06T12:27:32.021Z,33
2014-07-06T12:28:37.008Z,32.96
2014-07-06T12:29:41.994Z,32.87
2014-07-06T12:30:46.684Z,32.83
2014-07-06T12:31:51.373Z,32.81
2014-07-06T12:32:56.063Z,32.9
2014-07-06T12:34:00.752Z,32.82
2014-07-06T12:35:05.442Z,32.74
2014-07-06T12:36:09.459Z,32.63
2014-07-06T12:37:14.149Z,32.63
2014-07-06T12:38:18.838Z,32.69
2014-07-06T12:39:23.530Z,32.57
2014-07-06T12:40:28.813Z,32.73
2014-07-06T12:41:33.518Z,32.49
2014-07-06T12:42:38.503Z,32.35
2014-07-06T12:43:43.490Z,32.43
2014-07-06T12:44:48.195Z,32.45
2014-07-06T12:45:52.885Z,32.37
2014-07-06T12:46:57.886Z,32.62
2014-07-06T12:48:02.576Z,32.33
2014-07-06T12:49:07.265Z,32.6
2014-07-06T12:50:11.955Z,32.68
2014-07-06T12:51:16.941Z,32.56
2014-07-06T12:52:21.928Z,32.77
2014-07-06T12:53:26.635Z,32.71
2014-07-06T12:54:31.324Z,32.74
2014-07-06T12:55:36.014Z,32.9
2014-07-06T12:56:41.030Z,32.8
2014-07-06T12:57:45.720Z,32.72
2014-07-06T12:58:50.707Z,32.89
2014-07-06T12:59:55.396Z,32.88
2014-07-06T13:01:00.101Z,32.91
2014-07-06T13:02:04.791Z,32.98
2014-07-06T13:03:09.496Z,33.02
2014-07-06T13:04:14.201Z,33.17
2014-07-06T13:05:18.890Z,33.16
2014-07-06T13:06:23.580Z,32.79
2014-07-06T13:07:28.566Z,33.12
2014-07-06T13:08:33.257Z,33.13
2014-07-06T13:09:37.962Z,33.28
2014-07-06T13:10:42.651Z,33.58
2014-07-06T13:11:47.638Z,33.76
2014-07-06T13:12:52.624Z,33.85
2014-07-06T13:13:57.626Z,33.69
2014-07-06T13:15:02.613Z,33.64
2014-07-06T13:16:07.302Z,33.82
2014-07-06T13:17:11.991Z,33.61
2014-07-06T13:18:16.978Z,33.38
2014-07-06T13:19:21.683Z,33.64
2014-07-06T13:20:26.372Z,33.6
2014-07-06T13:21:31.062Z,33.4
2014-07-06T13:22:35.751Z,33.26
2014-07-06T13:23:40.441Z,33.25
2014-07-06T13:24:45.428Z,33.3
2014-07-06T13:25:50.117Z,33.36
2014-07-06T13:26:54.824Z,33.36
2014-07-06T13:27:58.826Z,33.46
2014-07-06T13:29:03.812Z,33.48
2014-07-06T13:30:07.814Z,33.38
2014-07-06T13:31:12.816Z,33.51
2014-07-06T13:32:17.803Z,33.44
2014-07-06T13:33:22.507Z,33.59
2014-07-06T13:34:27.493Z,33.65
2014-07-06T13:35:32.183Z,33.55
2014-07-06T13:36:37.169Z,33.56
2014-07-06T13:37:41.875Z,33.56
2014-07-06T13:38:46.564Z,33.39
2014-07-06T13:39:51.566Z,33.3
2014-07-06T13:40:56.552Z,33.4
2014-07-06T13:42:01.241Z,33.36
2014-07-06T13:43:06.228Z,33.25
2014-07-06T13:44:11.230Z,33.03
2014-07-06T13:45:15.919Z,33.11
2014-07-06T13:46:20.923Z,33.15
2014-07-06T13:47:25.614Z,32.89
2014-07-06T13:48:30.303Z,33
2014-07-06T13:49:34.993Z,32.73
2014-07-06T13:50:39.681Z,32.7
2014-07-06T13:51:44.386Z,32.67
2014-07-06T13:52:49.373Z,32.48
2014-07-06T13:53:54.062Z,32.53
2014-07-06T13:54:59.049Z,32.28
2014-07-06T13:56:03.738Z,32.36
2014-07-06T13:57:08.739Z,32.37
2014-07-06T13:58:13.429Z,32.32